sensor_id;sensor_type;location;lat;lon;timestamp;P1;durP1;ratioP1;P2;durP2;ratioP2
68803;SDS011;55787;52.678;13.314;2023-06-10T00:01:52;14.07;;;4.25;;
68803;SDS011;55787;52.678;13.314;2023-06-10T00:04:21;12.07;;;3.90;;
68803;SDS011;55787;52.678;13.314;2023-06-10T00:06:48;12.25;;;4.25;;
68803;SDS011;55787;52.678;13.314;2023-06-10T00:09:15;13.25;;;3.95;;
68803;SDS011;55787;52.678;13.314;2023-06-10T00:11:42;11.63;;;3.80;;
68803;SDS011;55787;52.678;13.314;2023-06-10T00:14:09;12.70;;;3.83;;
68803;SDS011;55787;52.678;13.314;2023-06-10T00:16:36;14.68;;;4.03;;
68803;SDS011;55787;52.678;13.314;2023-06-10T00:19:03;11.73;;;3.85;;
68803;SDS011;55787;52.678;13.314;2023-06-10T00:21:30;13.57;;;3.90;;
68803;SDS011;55787;52.678;13.314;2023-06-10T00:24:07;11.88;;;4.30;;
68803;SDS011;55787;52.678;13.314;2023-06-10T00:26:38;12.65;;;3.95;;
68803;SDS011;55787;52.678;13.314;2023-06-10T00:29:06;12.93;;;4.10;;
68803;SDS011;55787;52.678;13.314;2023-06-10T00:31:37;12.88;;;3.97;;
68803;SDS011;55787;52.678;13.314;2023-06-10T00:34:04;13.13;;;4.32;;
68803;SDS011;55787;52.678;13.314;2023-06-10T00:36:31;12.75;;;3.97;;
68803;SDS011;55787;52.678;13.314;2023-06-10T00:38:58;10.77;;;3.58;;
68803;SDS011;55787;52.678;13.314;2023-06-10T00:41:25;12.82;;;3.75;;
68803;SDS011;55787;52.678;13.314;2023-06-10T00:43:55;12.45;;;4.20;;
68803;SDS011;55787;52.678;13.314;2023-06-10T00:46:22;14.20;;;4.13;;
68803;SDS011;55787;52.678;13.314;2023-06-10T00:48:51;13.77;;;4.05;;
68803;SDS011;55787;52.678;13.314;2023-06-10T00:51:18;12.48;;;3.80;;
68803;SDS011;55787;52.678;13.314;2023-06-10T00:53:45;12.00;;;3.95;;
68803;SDS011;55787;52.678;13.314;2023-06-10T00:56:13;14.60;;;4.10;;
68803;SDS011;55787;52.678;13.314;2023-06-10T00:58:41;10.88;;;3.75;;
68803;SDS011;55787;52.678;13.314;2023-06-10T01:01:08;11.80;;;3.60;;
68803;SDS011;55787;52.678;13.314;2023-06-10T01:03:38;13.32;;;4.20;;
68803;SDS011;55787;52.678;13.314;2023-06-10T01:06:13;13.20;;;3.53;;
68803;SDS011;55787;52.678;13.314;2023-06-10T01:08:49;12.65;;;4.13;;
68803;SDS011;55787;52.678;13.314;2023-06-10T01:11:34;12.50;;;4.00;;
68803;SDS011;55787;52.678;13.314;2023-06-10T01:14:07;17.30;;;3.88;;
68803;SDS011;55787;52.678;13.314;2023-06-10T01:16:36;12.55;;;3.50;;
68803;SDS011;55787;52.678;13.314;2023-06-10T01:19:03;13.07;;;3.95;;
68803;SDS011;55787;52.678;13.314;2023-06-10T01:21:30;14.57;;;3.70;;
68803;SDS011;55787;52.678;13.314;2023-06-10T01:24:00;15.52;;;4.03;;
68803;SDS011;55787;52.678;13.314;2023-06-10T01:26:31;13.55;;;3.80;;
68803;SDS011;55787;52.678;13.314;2023-06-10T01:29:11;13.43;;;3.55;;
68803;SDS011;55787;52.678;13.314;2023-06-10T01:31:46;12.60;;;3.95;;
68803;SDS011;55787;52.678;13.314;2023-06-10T01:34:18;13.43;;;3.65;;
68803;SDS011;55787;52.678;13.314;2023-06-10T01:36:47;14.35;;;3.60;;
68803;SDS011;55787;52.678;13.314;2023-06-10T01:39:15;13.05;;;3.80;;
68803;SDS011;55787;52.678;13.314;2023-06-10T01:41:43;13.73;;;3.97;;
68803;SDS011;55787;52.678;13.314;2023-06-10T01:44:10;13.27;;;3.88;;
68803;SDS011;55787;52.678;13.314;2023-06-10T01:46:37;12.98;;;3.88;;
68803;SDS011;55787;52.678;13.314;2023-06-10T01:49:04;13.80;;;3.60;;
68803;SDS011;55787;52.678;13.314;2023-06-10T01:51:30;12.18;;;3.17;;
68803;SDS011;55787;52.678;13.314;2023-06-10T01:53:57;12.23;;;3.35;;
68803;SDS011;55787;52.678;13.314;2023-06-10T01:56:24;13.98;;;3.60;;
68803;SDS011;55787;52.678;13.314;2023-06-10T01:58:51;15.15;;;4.43;;
68803;SDS011;55787;52.678;13.314;2023-06-10T02:01:21;11.05;;;3.30;;
68803;SDS011;55787;52.678;13.314;2023-06-10T02:03:48;14.57;;;4.03;;
68803;SDS011;55787;52.678;13.314;2023-06-10T02:06:15;10.82;;;3.63;;
68803;SDS011;55787;52.678;13.314;2023-06-10T02:08:41;12.80;;;3.80;;
68803;SDS011;55787;52.678;13.314;2023-06-10T02:11:08;13.80;;;4.13;;
68803;SDS011;55787;52.678;13.314;2023-06-10T02:13:35;13.25;;;4.00;;
68803;SDS011;55787;52.678;13.314;2023-06-10T02:16:03;14.35;;;3.95;;
68803;SDS011;55787;52.678;13.314;2023-06-10T02:18:31;15.52;;;4.20;;
68803;SDS011;55787;52.678;13.314;2023-06-10T02:21:00;16.95;;;3.95;;
68803;SDS011;55787;52.678;13.314;2023-06-10T02:23:27;16.92;;;4.25;;
68803;SDS011;55787;52.678;13.314;2023-06-10T02:25:53;11.90;;;3.58;;
68803;SDS011;55787;52.678;13.314;2023-06-10T02:28:20;17.48;;;4.15;;
68803;SDS011;55787;52.678;13.314;2023-06-10T02:30:47;15.80;;;3.85;;
68803;SDS011;55787;52.678;13.314;2023-06-10T02:33:14;12.45;;;3.70;;
68803;SDS011;55787;52.678;13.314;2023-06-10T02:35:41;13.93;;;4.18;;
68803;SDS011;55787;52.678;13.314;2023-06-10T02:38:07;12.77;;;3.90;;
68803;SDS011;55787;52.678;13.314;2023-06-10T02:40:34;16.02;;;3.90;;
68803;SDS011;55787;52.678;13.314;2023-06-10T02:43:01;15.02;;;3.78;;
68803;SDS011;55787;52.678;13.314;2023-06-10T02:45:28;15.65;;;4.03;;
68803;SDS011;55787;52.678;13.314;2023-06-10T02:47:54;15.30;;;4.10;;
68803;SDS011;55787;52.678;13.314;2023-06-10T02:50:21;15.25;;;3.95;;
68803;SDS011;55787;52.678;13.314;2023-06-10T02:52:48;15.50;;;4.20;;
68803;SDS011;55787;52.678;13.314;2023-06-10T02:55:15;15.18;;;3.92;;
68803;SDS011;55787;52.678;13.314;2023-06-10T02:57:42;15.48;;;3.95;;
68803;SDS011;55787;52.678;13.314;2023-06-10T03:00:09;13.70;;;4.30;;
68803;SDS011;55787;52.678;13.314;2023-06-10T03:02:37;13.77;;;3.80;;
68803;SDS011;55787;52.678;13.314;2023-06-10T03:05:05;12.18;;;3.63;;
68803;SDS011;55787;52.678;13.314;2023-06-10T03:07:37;15.52;;;3.70;;
68803;SDS011;55787;52.678;13.314;2023-06-10T03:10:04;12.02;;;4.22;;
68803;SDS011;55787;52.678;13.314;2023-06-10T03:12:32;17.38;;;4.40;;
68803;SDS011;55787;52.678;13.314;2023-06-10T03:14:58;11.02;;;3.90;;
68803;SDS011;55787;52.678;13.314;2023-06-10T03:17:25;13.90;;;4.15;;
68803;SDS011;55787;52.678;13.314;2023-06-10T03:19:52;13.80;;;4.35;;
68803;SDS011;55787;52.678;13.314;2023-06-10T03:22:19;15.30;;;4.55;;
68803;SDS011;55787;52.678;13.314;2023-06-10T03:24:46;14.63;;;4.00;;
68803;SDS011;55787;52.678;13.314;2023-06-10T03:27:16;14.38;;;3.90;;
68803;SDS011;55787;52.678;13.314;2023-06-10T03:29:43;12.90;;;3.85;;
68803;SDS011;55787;52.678;13.314;2023-06-10T03:32:10;15.65;;;4.15;;
68803;SDS011;55787;52.678;13.314;2023-06-10T03:34:37;12.88;;;4.10;;
68803;SDS011;55787;52.678;13.314;2023-06-10T03:37:05;15.90;;;4.07;;
68803;SDS011;55787;52.678;13.314;2023-06-10T03:39:32;11.93;;;3.67;;
68803;SDS011;55787;52.678;13.314;2023-06-10T03:41:59;13.52;;;4.50;;
68803;SDS011;55787;52.678;13.314;2023-06-10T03:44:25;17.00;;;4.10;;
68803;SDS011;55787;52.678;13.314;2023-06-10T03:46:52;11.73;;;3.97;;
68803;SDS011;55787;52.678;13.314;2023-06-10T03:49:19;12.50;;;4.30;;
68803;SDS011;55787;52.678;13.314;2023-06-10T03:51:46;11.93;;;3.95;;
68803;SDS011;55787;52.678;13.314;2023-06-10T03:54:13;14.70;;;4.13;;
68803;SDS011;55787;52.678;13.314;2023-06-10T03:56:40;13.35;;;4.10;;
68803;SDS011;55787;52.678;13.314;2023-06-10T03:59:06;17.35;;;5.03;;
68803;SDS011;55787;52.678;13.314;2023-06-10T04:01:33;14.75;;;4.47;;
68803;SDS011;55787;52.678;13.314;2023-06-10T04:04:01;15.43;;;4.28;;
68803;SDS011;55787;52.678;13.314;2023-06-10T04:06:28;12.77;;;4.00;;
68803;SDS011;55787;52.678;13.314;2023-06-10T04:08:55;14.80;;;4.60;;
68803;SDS011;55787;52.678;13.314;2023-06-10T04:11:23;13.77;;;4.15;;
68803;SDS011;55787;52.678;13.314;2023-06-10T04:13:51;13.10;;;4.50;;
68803;SDS011;55787;52.678;13.314;2023-06-10T04:16:17;14.90;;;4.60;;
68803;SDS011;55787;52.678;13.314;2023-06-10T04:18:44;12.98;;;4.32;;
68803;SDS011;55787;52.678;13.314;2023-06-10T04:21:11;14.43;;;3.83;;
68803;SDS011;55787;52.678;13.314;2023-06-10T04:23:37;11.82;;;4.18;;
68803;SDS011;55787;52.678;13.314;2023-06-10T04:26:04;14.27;;;4.22;;
68803;SDS011;55787;52.678;13.314;2023-06-10T04:28:32;13.57;;;4.05;;
68803;SDS011;55787;52.678;13.314;2023-06-10T04:30:59;12.55;;;4.38;;
68803;SDS011;55787;52.678;13.314;2023-06-10T04:33:26;12.40;;;4.00;;
68803;SDS011;55787;52.678;13.314;2023-06-10T04:35:52;13.13;;;4.43;;
68803;SDS011;55787;52.678;13.314;2023-06-10T04:38:19;12.43;;;4.50;;
68803;SDS011;55787;52.678;13.314;2023-06-10T04:40:45;14.48;;;4.13;;
68803;SDS011;55787;52.678;13.314;2023-06-10T04:43:12;13.15;;;4.47;;
68803;SDS011;55787;52.678;13.314;2023-06-10T04:45:39;12.20;;;3.55;;
68803;SDS011;55787;52.678;13.314;2023-06-10T04:48:06;13.15;;;4.45;;
68803;SDS011;55787;52.678;13.314;2023-06-10T04:50:34;15.98;;;4.45;;
68803;SDS011;55787;52.678;13.314;2023-06-10T04:53:00;15.63;;;4.20;;
68803;SDS011;55787;52.678;13.314;2023-06-10T04:55:27;14.07;;;4.18;;
68803;SDS011;55787;52.678;13.314;2023-06-10T04:57:54;13.82;;;4.15;;
68803;SDS011;55787;52.678;13.314;2023-06-10T05:00:21;13.55;;;4.13;;
68803;SDS011;55787;52.678;13.314;2023-06-10T05:02:47;14.00;;;4.10;;
68803;SDS011;55787;52.678;13.314;2023-06-10T05:05:18;14.48;;;3.83;;
68803;SDS011;55787;52.678;13.314;2023-06-10T05:07:45;14.50;;;4.28;;
68803;SDS011;55787;52.678;13.314;2023-06-10T05:10:14;13.45;;;4.10;;
68803;SDS011;55787;52.678;13.314;2023-06-10T05:12:41;11.93;;;3.75;;
68803;SDS011;55787;52.678;13.314;2023-06-10T05:15:08;13.45;;;4.30;;
68803;SDS011;55787;52.678;13.314;2023-06-10T05:17:35;14.18;;;4.40;;
68803;SDS011;55787;52.678;13.314;2023-06-10T05:20:02;13.57;;;5.07;;
68803;SDS011;55787;52.678;13.314;2023-06-10T05:22:29;11.77;;;4.40;;
68803;SDS011;55787;52.678;13.314;2023-06-10T05:24:56;13.60;;;4.40;;
68803;SDS011;55787;52.678;13.314;2023-06-10T05:27:23;12.38;;;4.00;;
68803;SDS011;55787;52.678;13.314;2023-06-10T05:29:50;9.48;;;3.97;;
68803;SDS011;55787;52.678;13.314;2023-06-10T05:32:18;12.50;;;4.20;;
68803;SDS011;55787;52.678;13.314;2023-06-10T05:34:44;15.23;;;4.20;;
68803;SDS011;55787;52.678;13.314;2023-06-10T05:37:12;11.98;;;4.28;;
68803;SDS011;55787;52.678;13.314;2023-06-10T05:39:39;12.73;;;4.53;;
68803;SDS011;55787;52.678;13.314;2023-06-10T05:42:06;12.63;;;3.95;;
68803;SDS011;55787;52.678;13.314;2023-06-10T05:44:34;14.15;;;4.20;;
68803;SDS011;55787;52.678;13.314;2023-06-10T05:47:01;11.70;;;4.00;;
68803;SDS011;55787;52.678;13.314;2023-06-10T05:49:28;13.88;;;4.20;;
68803;SDS011;55787;52.678;13.314;2023-06-10T05:51:55;12.48;;;4.20;;
68803;SDS011;55787;52.678;13.314;2023-06-10T05:54:23;11.45;;;4.15;;
68803;SDS011;55787;52.678;13.314;2023-06-10T05:56:53;12.40;;;4.55;;
68803;SDS011;55787;52.678;13.314;2023-06-10T05:59:19;11.63;;;3.90;;
68803;SDS011;55787;52.678;13.314;2023-06-10T06:01:46;13.02;;;4.53;;
68803;SDS011;55787;52.678;13.314;2023-06-10T06:04:13;11.13;;;4.20;;
68803;SDS011;55787;52.678;13.314;2023-06-10T06:06:39;11.30;;;4.20;;
68803;SDS011;55787;52.678;13.314;2023-06-10T06:09:06;11.43;;;4.20;;
68803;SDS011;55787;52.678;13.314;2023-06-10T06:11:34;10.73;;;4.38;;
68803;SDS011;55787;52.678;13.314;2023-06-10T06:14:01;11.50;;;4.40;;
68803;SDS011;55787;52.678;13.314;2023-06-10T06:16:28;10.43;;;4.50;;
68803;SDS011;55787;52.678;13.314;2023-06-10T06:18:55;11.48;;;4.80;;
68803;SDS011;55787;52.678;13.314;2023-06-10T06:21:21;12.55;;;4.63;;
68803;SDS011;55787;52.678;13.314;2023-06-10T06:23:48;11.88;;;5.05;;
68803;SDS011;55787;52.678;13.314;2023-06-10T06:26:15;11.35;;;4.80;;
68803;SDS011;55787;52.678;13.314;2023-06-10T06:28:42;10.10;;;4.97;;
68803;SDS011;55787;52.678;13.314;2023-06-10T06:31:08;9.57;;;4.40;;
68803;SDS011;55787;52.678;13.314;2023-06-10T06:33:35;10.98;;;5.10;;
68803;SDS011;55787;52.678;13.314;2023-06-10T06:36:02;10.50;;;4.95;;
68803;SDS011;55787;52.678;13.314;2023-06-10T06:38:28;11.38;;;5.47;;
68803;SDS011;55787;52.678;13.314;2023-06-10T06:40:55;11.75;;;5.38;;
68803;SDS011;55787;52.678;13.314;2023-06-10T06:43:22;10.80;;;5.47;;
68803;SDS011;55787;52.678;13.314;2023-06-10T06:45:48;11.48;;;5.75;;
68803;SDS011;55787;52.678;13.314;2023-06-10T06:48:15;12.07;;;5.40;;
68803;SDS011;55787;52.678;13.314;2023-06-10T06:50:42;10.50;;;5.55;;
68803;SDS011;55787;52.678;13.314;2023-06-10T06:53:09;10.18;;;5.75;;
68803;SDS011;55787;52.678;13.314;2023-06-10T06:55:35;10.82;;;5.45;;
68803;SDS011;55787;52.678;13.314;2023-06-10T06:58:02;11.07;;;5.60;;
68803;SDS011;55787;52.678;13.314;2023-06-10T07:00:31;11.38;;;5.60;;
68803;SDS011;55787;52.678;13.314;2023-06-10T07:02:58;11.95;;;5.50;;
68803;SDS011;55787;52.678;13.314;2023-06-10T07:05:25;11.45;;;5.30;;
68803;SDS011;55787;52.678;13.314;2023-06-10T07:07:55;13.63;;;6.03;;
68803;SDS011;55787;52.678;13.314;2023-06-10T07:10:25;12.02;;;6.00;;
68803;SDS011;55787;52.678;13.314;2023-06-10T07:12:53;13.07;;;6.32;;
68803;SDS011;55787;52.678;13.314;2023-06-10T07:15:20;9.57;;;5.05;;
68803;SDS011;55787;52.678;13.314;2023-06-10T07:17:47;15.15;;;5.82;;
68803;SDS011;55787;52.678;13.314;2023-06-10T07:20:13;11.13;;;5.68;;
68803;SDS011;55787;52.678;13.314;2023-06-10T07:22:41;68.57;;;9.70;;
68803;SDS011;55787;52.678;13.314;2023-06-10T07:25:09;47.65;;;7.75;;
68803;SDS011;55787;52.678;13.314;2023-06-10T07:27:36;14.65;;;5.90;;
68803;SDS011;55787;52.678;13.314;2023-06-10T07:30:04;15.80;;;5.88;;
68803;SDS011;55787;52.678;13.314;2023-06-10T07:32:34;18.33;;;6.10;;
68803;SDS011;55787;52.678;13.314;2023-06-10T07:35:01;13.38;;;6.05;;
68803;SDS011;55787;52.678;13.314;2023-06-10T07:37:27;11.43;;;5.35;;
68803;SDS011;55787;52.678;13.314;2023-06-10T07:39:54;10.68;;;5.93;;
68803;SDS011;55787;52.678;13.314;2023-06-10T07:42:23;13.20;;;5.80;;
68803;SDS011;55787;52.678;13.314;2023-06-10T07:44:50;11.35;;;6.40;;
68803;SDS011;55787;52.678;13.314;2023-06-10T07:47:18;11.48;;;6.30;;
68803;SDS011;55787;52.678;13.314;2023-06-10T07:49:44;10.65;;;6.40;;
68803;SDS011;55787;52.678;13.314;2023-06-10T07:52:11;10.73;;;6.50;;
68803;SDS011;55787;52.678;13.314;2023-06-10T07:54:38;10.10;;;6.50;;
68803;SDS011;55787;52.678;13.314;2023-06-10T07:57:04;10.43;;;6.40;;
68803;SDS011;55787;52.678;13.314;2023-06-10T07:59:33;14.20;;;7.60;;
68803;SDS011;55787;52.678;13.314;2023-06-10T08:02:00;11.70;;;6.57;;
68803;SDS011;55787;52.678;13.314;2023-06-10T08:04:26;12.60;;;8.23;;
68803;SDS011;55787;52.678;13.314;2023-06-10T08:06:53;12.10;;;7.35;;
68803;SDS011;55787;52.678;13.314;2023-06-10T08:09:20;13.55;;;7.43;;
68803;SDS011;55787;52.678;13.314;2023-06-10T08:11:49;12.27;;;7.70;;
68803;SDS011;55787;52.678;13.314;2023-06-10T08:14:16;11.40;;;7.32;;
68803;SDS011;55787;52.678;13.314;2023-06-10T08:16:43;12.40;;;7.55;;
68803;SDS011;55787;52.678;13.314;2023-06-10T08:19:10;10.73;;;7.63;;
68803;SDS011;55787;52.678;13.314;2023-06-10T08:21:36;12.18;;;6.90;;
68803;SDS011;55787;52.678;13.314;2023-06-10T08:24:06;11.27;;;6.55;;
68803;SDS011;55787;52.678;13.314;2023-06-10T08:26:33;12.70;;;7.13;;
68803;SDS011;55787;52.678;13.314;2023-06-10T08:29:01;11.95;;;6.60;;
68803;SDS011;55787;52.678;13.314;2023-06-10T08:31:27;11.95;;;6.80;;
68803;SDS011;55787;52.678;13.314;2023-06-10T08:33:54;13.75;;;7.03;;
68803;SDS011;55787;52.678;13.314;2023-06-10T08:36:21;12.95;;;6.75;;
68803;SDS011;55787;52.678;13.314;2023-06-10T08:38:48;18.52;;;6.80;;
68803;SDS011;55787;52.678;13.314;2023-06-10T08:41:16;11.95;;;6.70;;
68803;SDS011;55787;52.678;13.314;2023-06-10T08:43:44;11.52;;;6.38;;
68803;SDS011;55787;52.678;13.314;2023-06-10T08:46:14;13.32;;;6.00;;
68803;SDS011;55787;52.678;13.314;2023-06-10T08:48:44;13.50;;;6.50;;
68803;SDS011;55787;52.678;13.314;2023-06-10T08:51:15;14.80;;;6.05;;
68803;SDS011;55787;52.678;13.314;2023-06-10T08:53:48;13.35;;;6.20;;
68803;SDS011;55787;52.678;13.314;2023-06-10T08:56:19;13.93;;;6.07;;
68803;SDS011;55787;52.678;13.314;2023-06-10T08:58:47;14.70;;;6.82;;
68803;SDS011;55787;52.678;13.314;2023-06-10T09:01:14;12.63;;;6.20;;
68803;SDS011;55787;52.678;13.314;2023-06-10T09:03:43;12.85;;;6.47;;
68803;SDS011;55787;52.678;13.314;2023-06-10T09:06:10;12.23;;;6.72;;
68803;SDS011;55787;52.678;13.314;2023-06-10T09:08:37;13.63;;;6.88;;
68803;SDS011;55787;52.678;13.314;2023-06-10T09:11:04;13.13;;;6.70;;
68803;SDS011;55787;52.678;13.314;2023-06-10T09:13:31;11.25;;;6.10;;
68803;SDS011;55787;52.678;13.314;2023-06-10T09:15:58;12.48;;;6.43;;
68803;SDS011;55787;52.678;13.314;2023-06-10T09:18:28;12.82;;;5.60;;
68803;SDS011;55787;52.678;13.314;2023-06-10T09:20:55;11.48;;;5.85;;
68803;SDS011;55787;52.678;13.314;2023-06-10T09:23:21;11.23;;;6.45;;
68803;SDS011;55787;52.678;13.314;2023-06-10T09:25:55;11.13;;;6.45;;
68803;SDS011;55787;52.678;13.314;2023-06-10T09:28:24;11.23;;;6.07;;
68803;SDS011;55787;52.678;13.314;2023-06-10T09:31:01;12.50;;;6.13;;
68803;SDS011;55787;52.678;13.314;2023-06-10T09:33:33;12.27;;;6.55;;
68803;SDS011;55787;52.678;13.314;2023-06-10T09:36:03;14.10;;;6.38;;
68803;SDS011;55787;52.678;13.314;2023-06-10T09:38:31;11.35;;;5.80;;
68803;SDS011;55787;52.678;13.314;2023-06-10T09:40:58;12.18;;;6.35;;
68803;SDS011;55787;52.678;13.314;2023-06-10T09:43:43;12.60;;;6.70;;
68803;SDS011;55787;52.678;13.314;2023-06-10T09:46:17;13.32;;;6.40;;
68803;SDS011;55787;52.678;13.314;2023-06-10T09:48:46;13.32;;;5.97;;
68803;SDS011;55787;52.678;13.314;2023-06-10T09:51:13;11.80;;;5.75;;
68803;SDS011;55787;52.678;13.314;2023-06-10T09:53:41;13.30;;;6.20;;
68803;SDS011;55787;52.678;13.314;2023-06-10T09:56:08;13.65;;;6.40;;
68803;SDS011;55787;52.678;13.314;2023-06-10T09:58:39;12.45;;;6.32;;
68803;SDS011;55787;52.678;13.314;2023-06-10T10:01:10;11.02;;;6.10;;
68803;SDS011;55787;52.678;13.314;2023-06-10T10:03:47;11.55;;;6.00;;
68803;SDS011;55787;52.678;13.314;2023-06-10T10:06:17;11.07;;;5.97;;
68803;SDS011;55787;52.678;13.314;2023-06-10T10:08:45;14.80;;;6.35;;
68803;SDS011;55787;52.678;13.314;2023-06-10T10:11:14;13.45;;;6.43;;
68803;SDS011;55787;52.678;13.314;2023-06-10T10:13:42;12.48;;;6.22;;
68803;SDS011;55787;52.678;13.314;2023-06-10T10:16:14;12.90;;;6.00;;
68803;SDS011;55787;52.678;13.314;2023-06-10T10:18:54;10.98;;;5.95;;
68803;SDS011;55787;52.678;13.314;2023-06-10T10:21:23;11.55;;;6.78;;
68803;SDS011;55787;52.678;13.314;2023-06-10T10:23:53;13.65;;;6.13;;
68803;SDS011;55787;52.678;13.314;2023-06-10T10:26:27;9.90;;;5.93;;
68803;SDS011;55787;52.678;13.314;2023-06-10T10:29:20;11.80;;;5.65;;
68803;SDS011;55787;52.678;13.314;2023-06-10T10:31:45;12.73;;;6.00;;
68803;SDS011;55787;52.678;13.314;2023-06-10T10:34:19;10.95;;;5.70;;
68803;SDS011;55787;52.678;13.314;2023-06-10T10:36:52;13.13;;;5.93;;
68803;SDS011;55787;52.678;13.314;2023-06-10T10:39:19;11.40;;;5.45;;
68803;SDS011;55787;52.678;13.314;2023-06-10T10:41:46;12.18;;;5.43;;
68803;SDS011;55787;52.678;13.314;2023-06-10T10:44:14;12.43;;;5.95;;
68803;SDS011;55787;52.678;13.314;2023-06-10T10:46:45;13.35;;;5.63;;
68803;SDS011;55787;52.678;13.314;2023-06-10T10:49:16;11.98;;;5.68;;
68803;SDS011;55787;52.678;13.314;2023-06-10T10:51:57;11.90;;;5.57;;
68803;SDS011;55787;52.678;13.314;2023-06-10T10:54:34;14.60;;;5.78;;
68803;SDS011;55787;52.678;13.314;2023-06-10T11:08:08;11.93;;;5.72;;
68803;SDS011;55787;52.678;13.314;2023-06-10T11:10:36;10.48;;;4.90;;
68803;SDS011;55787;52.678;13.314;2023-06-10T11:13:13;9.48;;;4.80;;
68803;SDS011;55787;52.678;13.314;2023-06-10T11:15:44;10.77;;;4.80;;
68803;SDS011;55787;52.678;13.314;2023-06-10T11:18:26;12.85;;;5.30;;
68803;SDS011;55787;52.678;13.314;2023-06-10T11:21:02;15.90;;;7.35;;
68803;SDS011;55787;52.678;13.314;2023-06-10T11:23:32;11.05;;;6.55;;
68803;SDS011;55787;52.678;13.314;2023-06-10T11:31:25;11.70;;;5.85;;
68803;SDS011;55787;52.678;13.314;2023-06-10T11:36:32;10.48;;;6.03;;
68803;SDS011;55787;52.678;13.314;2023-06-10T11:39:09;13.43;;;6.20;;
68803;SDS011;55787;52.678;13.314;2023-06-10T11:41:37;10.30;;;6.00;;
68803;SDS011;55787;52.678;13.314;2023-06-10T11:46:35;12.13;;;6.10;;
68803;SDS011;55787;52.678;13.314;2023-06-10T11:49:03;11.50;;;6.03;;
68803;SDS011;55787;52.678;13.314;2023-06-10T11:51:35;11.30;;;6.25;;
68803;SDS011;55787;52.678;13.314;2023-06-10T11:54:03;10.05;;;6.20;;
68803;SDS011;55787;52.678;13.314;2023-06-10T11:56:30;10.25;;;6.13;;
68803;SDS011;55787;52.678;13.314;2023-06-10T11:59:02;12.13;;;5.50;;
68803;SDS011;55787;52.678;13.314;2023-06-10T12:01:32;10.45;;;5.82;;
68803;SDS011;55787;52.678;13.314;2023-06-10T12:04:01;10.63;;;5.75;;
68803;SDS011;55787;52.678;13.314;2023-06-10T12:06:39;9.98;;;5.68;;
68803;SDS011;55787;52.678;13.314;2023-06-10T12:09:23;9.38;;;6.03;;
68803;SDS011;55787;52.678;13.314;2023-06-10T12:12:05;13.30;;;6.25;;
68803;SDS011;55787;52.678;13.314;2023-06-10T12:19:58;9.48;;;5.32;;
68803;SDS011;55787;52.678;13.314;2023-06-10T12:22:26;9.98;;;4.93;;
68803;SDS011;55787;52.678;13.314;2023-06-10T12:24:57;9.65;;;5.70;;
68803;SDS011;55787;52.678;13.314;2023-06-10T12:27:29;9.95;;;5.53;;
68803;SDS011;55787;52.678;13.314;2023-06-10T12:29:58;8.20;;;5.10;;
68803;SDS011;55787;52.678;13.314;2023-06-10T12:32:43;7.63;;;5.03;;
68803;SDS011;55787;52.678;13.314;2023-06-10T12:35:11;9.20;;;4.82;;
68803;SDS011;55787;52.678;13.314;2023-06-10T12:37:40;7.93;;;4.78;;
68803;SDS011;55787;52.678;13.314;2023-06-10T12:40:09;7.90;;;5.32;;
68803;SDS011;55787;52.678;13.314;2023-06-10T12:42:36;8.75;;;5.35;;
68803;SDS011;55787;52.678;13.314;2023-06-10T12:45:04;10.13;;;6.85;;
68803;SDS011;55787;52.678;13.314;2023-06-10T12:47:35;11.43;;;6.95;;
68803;SDS011;55787;52.678;13.314;2023-06-10T12:50:05;10.57;;;7.45;;
68803;SDS011;55787;52.678;13.314;2023-06-10T12:52:32;10.05;;;7.70;;
68803;SDS011;55787;52.678;13.314;2023-06-10T12:54:59;11.52;;;7.50;;
68803;SDS011;55787;52.678;13.314;2023-06-10T12:57:27;11.48;;;8.35;;
68803;SDS011;55787;52.678;13.314;2023-06-10T12:59:54;12.02;;;8.38;;
68803;SDS011;55787;52.678;13.314;2023-06-10T13:02:23;12.02;;;8.35;;
68803;SDS011;55787;52.678;13.314;2023-06-10T13:04:50;11.32;;;7.63;;
68803;SDS011;55787;52.678;13.314;2023-06-10T13:07:17;13.50;;;8.80;;
68803;SDS011;55787;52.678;13.314;2023-06-10T13:09:44;12.50;;;8.45;;
68803;SDS011;55787;52.678;13.314;2023-06-10T13:12:15;11.45;;;8.57;;
68803;SDS011;55787;52.678;13.314;2023-06-10T13:14:46;13.13;;;8.23;;
68803;SDS011;55787;52.678;13.314;2023-06-10T13:17:13;10.30;;;7.78;;
68803;SDS011;55787;52.678;13.314;2023-06-10T13:19:39;11.60;;;8.40;;
68803;SDS011;55787;52.678;13.314;2023-06-10T13:22:06;11.75;;;7.75;;
68803;SDS011;55787;52.678;13.314;2023-06-10T13:24:33;11.93;;;8.32;;
68803;SDS011;55787;52.678;13.314;2023-06-10T13:27:00;11.77;;;8.68;;
68803;SDS011;55787;52.678;13.314;2023-06-10T13:29:26;11.05;;;8.20;;
68803;SDS011;55787;52.678;13.314;2023-06-10T13:31:53;11.02;;;8.10;;
68803;SDS011;55787;52.678;13.314;2023-06-10T13:34:20;12.77;;;8.48;;
68803;SDS011;55787;52.678;13.314;2023-06-10T13:36:47;12.32;;;8.00;;
68803;SDS011;55787;52.678;13.314;2023-06-10T13:39:14;11.40;;;7.93;;
68803;SDS011;55787;52.678;13.314;2023-06-10T13:41:41;12.48;;;7.68;;
68803;SDS011;55787;52.678;13.314;2023-06-10T13:44:09;12.35;;;7.57;;
68803;SDS011;55787;52.678;13.314;2023-06-10T13:46:36;10.30;;;7.18;;
68803;SDS011;55787;52.678;13.314;2023-06-10T13:49:03;9.60;;;7.00;;
68803;SDS011;55787;52.678;13.314;2023-06-10T13:51:29;10.57;;;6.65;;
68803;SDS011;55787;52.678;13.314;2023-06-10T13:53:56;11.07;;;6.70;;
68803;SDS011;55787;52.678;13.314;2023-06-10T13:56:23;11.35;;;6.55;;
68803;SDS011;55787;52.678;13.314;2023-06-10T13:58:50;10.00;;;6.60;;
68803;SDS011;55787;52.678;13.314;2023-06-10T14:01:16;9.40;;;6.38;;
68803;SDS011;55787;52.678;13.314;2023-06-10T14:03:43;13.45;;;7.30;;
68803;SDS011;55787;52.678;13.314;2023-06-10T14:06:10;10.40;;;7.10;;
68803;SDS011;55787;52.678;13.314;2023-06-10T14:08:39;11.50;;;7.00;;
68803;SDS011;55787;52.678;13.314;2023-06-10T14:11:06;11.43;;;6.57;;
68803;SDS011;55787;52.678;13.314;2023-06-10T14:13:33;11.35;;;6.32;;
68803;SDS011;55787;52.678;13.314;2023-06-10T14:16:00;10.13;;;6.18;;
68803;SDS011;55787;52.678;13.314;2023-06-10T14:18:30;10.27;;;6.57;;
68803;SDS011;55787;52.678;13.314;2023-06-10T14:20:57;8.65;;;5.78;;
68803;SDS011;55787;52.678;13.314;2023-06-10T14:23:23;10.73;;;6.00;;
68803;SDS011;55787;52.678;13.314;2023-06-10T14:25:53;10.30;;;6.00;;
68803;SDS011;55787;52.678;13.314;2023-06-10T14:28:21;10.20;;;5.80;;
68803;SDS011;55787;52.678;13.314;2023-06-10T14:30:48;9.65;;;5.70;;
68803;SDS011;55787;52.678;13.314;2023-06-10T14:33:14;11.75;;;6.07;;
68803;SDS011;55787;52.678;13.314;2023-06-10T14:35:41;8.70;;;5.82;;
68803;SDS011;55787;52.678;13.314;2023-06-10T14:38:09;10.85;;;6.57;;
68803;SDS011;55787;52.678;13.314;2023-06-10T14:40:36;9.20;;;6.10;;
68803;SDS011;55787;52.678;13.314;2023-06-10T14:43:02;10.10;;;6.03;;
68803;SDS011;55787;52.678;13.314;2023-06-10T14:45:36;9.82;;;5.63;;
68803;SDS011;55787;52.678;13.314;2023-06-10T14:48:03;10.60;;;5.40;;
68803;SDS011;55787;52.678;13.314;2023-06-10T14:50:31;9.30;;;5.03;;
68803;SDS011;55787;52.678;13.314;2023-06-10T14:52:58;11.77;;;5.40;;
68803;SDS011;55787;52.678;13.314;2023-06-10T14:55:25;9.50;;;5.32;;
68803;SDS011;55787;52.678;13.314;2023-06-10T14:57:52;9.48;;;5.55;;